Carolyn — 9V2368 — position and weather

sailwx.info

Track history (hours):
 
Tides and Currents Weather Stations Pressure Air Temp Water Temp Dewpoint Dewpoint Depression Visibility Wind Speed Wind Dir Waves Ship Positions

Carolyn

Last reported at 2018-Jun-17 20:29 UTC. Time now 2018-Jun-25 02:21 UTC.
Position N 01°28' E 104°33'.

Length 189 m; draft 6.5 m.

Type: Cargo ship. MMSI: 564576000.

Date/timePositionNaut miles runAvg speedWind from/ knotsBaromVisibWave heightAir tempDewpointWater temp
2018-Jun-17 20:29N 01°28' E 104°33'714.8
2018-Jun-17 19:59N 01°23' E 104°27'815.1
2018-Jun-17 19:28N 01°19' E 104°21'714.0
2018-Jun-17 19:00N 01°17' E 104°15'612.4
2018-Jun-17 18:30N 01°16' E 104°09'3 5.8
2018-Jun-17 17:58N 01°16' E 104°06'2 5.0
2018-Jun-17 17:30N 01°15' E 104°03'4 8.9
2018-Jun-17 17:00N 01°15' E 103°59'611.7
2018-Jun-17 16:30N 01°12' E 103°54'611.6
2018-Jun-17 16:00N 01°10' E 103°48'612.0
2018-Jun-17 15:30N 01°06' E 103°44'611.4
2018-Jun-17 14:59N 01°03' E 103°39'611.6
2018-Jun-17 14:30N 01°06' E 103°34'610.9
2018-Jun-17 13:59N 01°08' E 103°29'611.3
2018-Jun-17 13:28N 01°11' E 103°24'510.7
2018-Jun-17 13:00N 01°15' E 103°20'611.7
2018-Jun-17 12:31N 01°18' E 103°16'  
Track history (hours):
 
Tides and Currents Weather Stations Pressure Air Temp Water Temp Dewpoint Dewpoint Depression Visibility Wind Speed Wind Dir Waves Ship Positions

Carolyn

Last reported at 2018-Jun-17 20:29 UTC. Time now 2018-Jun-25 02:21 UTC.
Position N 01°28' E 104°33'.

Length 189 m; draft 6.5 m.

Type: Cargo ship. MMSI: 564576000.

Date/timePositionNaut miles runAvg speedWind from/ knotsBaromVisibWave heightAir tempDewpointWater temp
2018-Jun-17 20:29N 01°28' E 104°33'714.8
2018-Jun-17 19:59N 01°23' E 104°27'815.1
2018-Jun-17 19:28N 01°19' E 104°21'714.0
2018-Jun-17 19:00N 01°17' E 104°15'612.4
2018-Jun-17 18:30N 01°16' E 104°09'3 5.8
2018-Jun-17 17:58N 01°16' E 104°06'2 5.0
2018-Jun-17 17:30N 01°15' E 104°03'4 8.9
2018-Jun-17 17:00N 01°15' E 103°59'611.7
2018-Jun-17 16:30N 01°12' E 103°54'611.6
2018-Jun-17 16:00N 01°10' E 103°48'612.0
2018-Jun-17 15:30N 01°06' E 103°44'611.4
2018-Jun-17 14:59N 01°03' E 103°39'611.6
2018-Jun-17 14:30N 01°06' E 103°34'610.9
2018-Jun-17 13:59N 01°08' E 103°29'611.3
2018-Jun-17 13:28N 01°11' E 103°24'510.7
2018-Jun-17 13:00N 01°15' E 103°20'611.7
2018-Jun-17 12:31N 01°18' E 103°16'  

Dump ship's entire track history